Time;durP1;ratioP1;P1;durP2;ratioP2;P2;SDS_P1;SDS_P2;PMS_P1;PMS_P2;Temp;Humidity;BMP_temperature;BMP_pressure;BME280_temperature;BME280_humidity;BME280_pressure;Samples;Min_cycle;Max_cycle;Signal;HPM_P1;HPM_P2
2022/08/24 00:00:33;;;;;;;38.40;31.52;;;21.70;99.90;;;;;;3058989;19;20021;-73
2022/08/24 00:01:35;;;;;;;39.05;32.83;;;21.50;99.90;;;;;;3058775;19;20696;-73
2022/08/24 00:02:39;;;;;;;40.20;32.83;;;21.50;99.90;;;;;;3058948;19;20010;-73
2022/08/24 00:03:41;;;;;;;39.72;32.63;;;21.70;99.90;;;;;;3058841;19;20003;-74
2022/08/24 00:04:46;;;;;;;42.28;34.85;;;21.60;99.90;;;;;;3057773;19;20014;-72
2022/08/24 00:05:48;;;;;;;40.05;33.67;;;21.60;99.90;;;;;;3058030;19;20081;-72
2022/08/24 00:06:49;;;;;;;;;;;21.60;99.90;;;;;;3059395;19;20041;-71
2022/08/24 00:07:55;;;;;;;42.20;33.83;;;21.40;99.90;;;;;;3058696;19;20352;-72
2022/08/24 00:08:58;;;;;;;40.80;34.45;;;21.40;99.90;;;;;;3059225;19;20027;-72
2022/08/24 00:10:03;;;;;;;44.03;34.50;;;21.60;99.90;;;;;;3058755;19;20007;-71
2022/08/24 00:11:05;;;;;;;37.72;33.53;;;21.80;99.90;;;;;;3059084;19;20013;-72
2022/08/24 00:12:09;;;;;;;40.13;34.05;;;21.60;99.90;;;;;;3059041;19;20003;-72
2022/08/24 00:13:11;;;;;;;37.85;32.97;;;21.70;99.90;;;;;;3059003;19;20009;-71
2022/08/24 00:14:15;;;;;;;;;;;21.60;99.90;;;;;;3059454;19;20015;-72
2022/08/24 00:15:19;;;;;;;38.40;32.92;;;21.50;99.90;;;;;;3057334;19;20312;-72
2022/08/24 00:16:21;;;;;;;38.83;33.20;;;21.40;99.90;;;;;;3058099;19;20039;-72
2022/08/24 00:17:25;;;;;;;40.20;33.92;;;21.60;99.90;;;;;;3058823;19;20077;-72
2022/08/24 00:18:26;;;;;;;40.25;34.22;;;21.50;99.90;;;;;;3058598;19;20010;-72
2022/08/24 00:19:31;;;;;;;40.13;34.22;;;21.50;99.90;;;;;;3058286;19;20021;-72
2022/08/24 00:20:32;;;;;;;44.92;36.65;;;21.40;99.90;;;;;;3058565;19;20507;-72
2022/08/24 00:21:36;;;;;;;43.33;36.53;;;21.40;99.90;;;;;;3058670;19;20031;-72
2022/08/24 00:22:37;;;;;;;44.90;35.80;;;21.50;99.90;;;;;;3058499;19;20011;-72
2022/08/24 00:23:46;;;;;;;42.83;37.08;;;21.40;99.90;;;;;;3058710;19;20015;-73
2022/08/24 00:24:50;;;;;;;44.65;36.80;;;21.30;99.90;;;;;;3058710;19;20014;-73
2022/08/24 00:25:51;;;;;;;43.42;36.38;;;21.40;99.90;;;;;;3058630;19;20010;-72
2022/08/24 00:26:56;;;;;;;44.67;35.78;;;21.50;99.90;;;;;;3058316;19;20007;-72
2022/08/24 00:27:57;;;;;;;41.97;35.58;;;21.40;99.90;;;;;;3058211;19;20006;-73
2022/08/24 00:29:02;;;;;;;43.20;35.55;;;21.40;99.90;;;;;;3058691;19;20013;-75
2022/08/24 00:30:06;;;;;;;40.90;34.15;;;21.20;99.90;;;;;;3058759;19;20356;-73
2022/08/24 00:31:10;;;;;;;42.95;34.70;;;21.30;99.90;;;;;;3059258;19;20016;-71
2022/08/24 00:32:11;;;;;;;42.13;35.45;;;21.30;99.90;;;;;;3058777;19;20014;-73
2022/08/24 00:33:15;;;;;;;40.72;35.65;;;21.30;99.90;;;;;;3059235;19;20015;-73
2022/08/24 00:34:17;;;;;;;42.88;34.75;;;21.30;99.90;;;;;;3060398;19;20377;-73
2022/08/24 00:35:23;;;;;;;47.20;35.72;;;21.20;99.90;;;;;;3059228;19;20007;-74
2022/08/24 00:36:24;;;;;;;43.50;35.92;;;21.20;99.90;;;;;;3060431;19;20002;-73
2022/08/24 00:37:29;;;;;;;44.83;37.03;;;21.30;99.90;;;;;;3060214;19;20014;-73
2022/08/24 00:38:31;;;;;;;45.80;37.72;;;21.30;99.90;;;;;;3060403;19;20006;-73
2022/08/24 00:39:37;;;;;;;47.40;37.97;;;21.20;99.90;;;;;;3059327;19;20006;-72
2022/08/24 00:40:41;;;;;;;46.38;36.65;;;21.20;99.90;;;;;;3058562;19;20021;-73
2022/08/24 00:41:47;;;;;;;47.33;36.55;;;21.30;99.90;;;;;;3058732;19;20014;-72
2022/08/24 00:42:49;;;;;;;45.10;38.17;;;21.20;99.90;;;;;;3060125;19;20009;-72
2022/08/24 00:43:57;;;;;;;44.15;36.30;;;21.20;99.90;;;;;;3060071;19;20015;-73
2022/08/24 00:44:58;;;;;;;41.97;35.83;;;21.10;99.90;;;;;;3057907;19;20340;-72
2022/08/24 00:46:15;;;;;;;43.95;37.83;;;21.10;99.90;;;;;;3057768;19;20010;-73
2022/08/24 00:47:19;;;;;;;44.30;37.85;;;21.10;99.90;;;;;;3058301;19;20476;-71
2022/08/24 00:48:27;;;;;;;52.92;40.15;;;21.20;99.90;;;;;;3058383;19;20409;-71
2022/08/24 00:49:36;;;;;;;49.55;39.03;;;21.00;99.90;;;;;;3057899;19;20018;-73
2022/08/24 00:50:42;;;;;;;48.58;38.88;;;20.80;99.90;;;;;;3058382;19;20006;-73
2022/08/24 00:51:56;;;;;;;44.25;38.22;;;20.80;99.90;;;;;;3058100;19;20025;-73
2022/08/24 00:53:01;;;;;;;44.63;35.80;;;20.90;99.90;;;;;;3058432;19;20085;-73
2022/08/24 00:54:09;;;;;;;44.30;36.80;;;20.90;99.90;;;;;;3058177;19;20022;-73
2022/08/24 00:55:17;;;;;;;51.30;39.28;;;21.00;99.90;;;;;;3058514;19;20014;-72
2022/08/24 00:56:24;;;;;;;49.17;38.88;;;21.00;99.90;;;;;;3058153;19;20364;-72
2022/08/24 00:57:31;;;;;;;47.13;37.38;;;20.80;99.90;;;;;;3058647;19;19998;-73
2022/08/24 00:58:52;;;;;;;45.25;35.90;;;20.90;99.90;;;;;;3058269;19;20021;-73
2022/08/24 00:59:59;;;;;;;48.17;37.05;;;20.90;99.90;;;;;;3058444;19;20027;-73
2022/08/24 01:01:06;;;;;;;46.10;36.63;;;21.00;99.90;;;;;;3058476;19;20082;-73
2022/08/24 01:02:11;;;;;;;45.95;37.88;;;20.70;99.90;;;;;;3058129;19;20479;-73
2022/08/24 01:03:25;;;;;;;47.10;37.33;;;20.80;99.90;;;;;;3058277;19;20025;-71
2022/08/24 01:04:34;;;;;;;45.42;37.90;;;20.90;99.90;;;;;;3058102;19;20018;-73
2022/08/24 01:05:39;;;;;;;44.55;37.85;;;20.90;99.90;;;;;;3058195;19;20011;-73
2022/08/24 01:06:41;;;;;;;49.20;38.28;;;20.80;99.90;;;;;;3058117;19;20014;-72
2022/08/24 01:07:45;;;;;;;45.30;37.30;;;20.80;99.90;;;;;;3057866;19;20018;-73
2022/08/24 01:08:47;;;;;;;50.42;40.75;;;20.90;99.90;;;;;;3058108;19;20014;-73
2022/08/24 01:09:51;;;;;;;49.40;40.00;;;20.80;99.90;;;;;;3058084;19;20086;-73
2022/08/24 01:11:00;;;;;;;48.13;39.92;;;20.70;99.90;;;;;;3057812;19;20737;-73
2022/08/24 01:12:04;;;;;;;52.85;41.95;;;20.70;99.90;;;;;;3058094;19;20409;-73
2022/08/24 01:13:08;;;;;;;48.10;39.80;;;19.60;99.90;;;;;;3058103;19;20014;-72
2022/08/24 01:14:12;;;;;;;59.00;42.65;;;20.50;99.90;;;;;;3058149;19;20070;-73
2022/08/24 01:15:15;;;;;;;51.85;41.60;;;20.70;99.90;;;;;;3057232;19;20374;-70
2022/08/24 01:18:59;;;;;;;51.13;41.03;;;20.40;99.90;;;;;;3057252;19;20480;-71
2022/08/24 01:20:03;;;;;;;52.25;40.67;;;20.70;99.90;;;;;;3057602;19;20363;-71
2022/08/24 01:21:16;;;;;;;54.33;41.72;;;20.70;99.90;;;;;;3057955;19;20010;-71
2022/08/24 01:22:36;;;;;;;51.30;41.15;;;20.70;99.90;;;;;;3058122;19;20011;-71
2022/08/24 01:23:44;;;;;;;51.40;41.13;;;20.40;99.90;;;;;;3057994;19;20502;-71
2022/08/24 01:24:46;;;;;;;47.63;39.05;;;20.60;99.90;;;;;;3058019;19;20014;-71
2022/08/24 01:25:50;;;;;;;50.95;42.03;;;20.60;99.90;;;;;;3057975;19;20414;-71
2022/08/24 01:26:51;;;;;;;50.72;41.38;;;20.50;99.90;;;;;;3057849;19;20495;-72
2022/08/24 01:27:58;;;;;;;49.10;40.70;;;20.60;99.90;;;;;;3058483;19;20387;-72
2022/08/24 01:29:03;;;;;;;49.67;40.28;;;20.40;99.90;;;;;;3057698;19;20011;-71
2022/08/24 01:30:12;;;;;;;45.05;38.33;;;20.40;99.90;;;;;;3058174;19;20003;-71
2022/08/24 01:31:15;;;;;;;47.97;39.90;;;20.60;99.90;;;;;;3057796;19;20720;-71
2022/08/24 01:32:24;;;;;;;47.33;39.35;;;20.50;99.90;;;;;;3058092;19;20023;-71
2022/08/24 01:33:27;;;;;;;54.13;40.20;;;20.50;99.90;;;;;;3057844;19;20010;-71
2022/08/24 01:34:31;;;;;;;53.13;41.17;;;20.40;99.90;;;;;;3057755;19;20010;-71
2022/08/24 01:35:34;;;;;;;51.22;40.55;;;20.30;99.90;;;;;;3057689;19;20003;-71
2022/08/24 01:36:40;;;;;;;51.45;39.83;;;20.40;99.90;;;;;;3057694;19;20049;-71
2022/08/24 01:37:42;;;;;;;48.58;39.95;;;20.40;99.90;;;;;;3057688;19;20024;-71
2022/08/24 01:38:49;;;;;;;50.58;38.97;;;20.50;99.90;;;;;;3058165;19;20010;-72
2022/08/24 01:39:54;;;;;;;45.17;37.85;;;20.20;99.90;;;;;;3057780;19;20014;-71
2022/08/24 01:41:02;;;;;;;48.15;38.95;;;20.40;99.90;;;;;;3057852;19;20018;-71
2022/08/24 01:42:04;;;;;;;45.17;38.45;;;20.30;99.90;;;;;;3057593;19;20018;-71
2022/08/24 01:43:09;;;;;;;44.22;37.50;;;20.40;99.90;;;;;;3057771;19;20524;-72
2022/08/24 01:44:11;;;;;;;46.50;37.40;;;20.40;99.90;;;;;;3057822;19;20101;-71
2022/08/24 01:45:15;;;;;;;47.90;39.08;;;20.30;99.90;;;;;;3057853;19;20002;-71
2022/08/24 01:46:16;;;;;;;46.55;38.60;;;20.40;99.90;;;;;;3056662;19;20015;-71
2022/08/24 01:47:20;;;;;;;47.35;38.60;;;20.50;99.90;;;;;;3058146;19;20015;-71
2022/08/24 01:48:22;;;;;;;50.00;39.30;;;20.40;99.90;;;;;;3060189;19;20018;-71
2022/08/24 01:49:32;;;;;;;;;;;20.60;99.90;;;;;;3060991;19;20018;-71
2022/08/24 01:50:33;;;;;;;45.30;36.08;;;20.30;99.90;;;;;;3060507;19;19942;-70
2022/08/24 01:51:38;;;;;;;47.40;38.80;;;20.30;99.90;;;;;;3060807;19;20069;-73
2022/08/24 01:52:42;;;;;;;45.92;38.25;;;20.40;99.90;;;;;;3060662;19;20349;-71
2022/08/24 01:53:49;;;;;;;45.75;38.80;;;20.40;99.90;;;;;;3060930;19;20027;-71
2022/08/24 01:54:50;;;;;;;46.25;38.25;;;20.30;99.90;;;;;;3060817;19;20021;-71
2022/08/24 01:55:54;;;;;;;46.45;37.47;;;20.40;99.90;;;;;;3060736;19;20006;-71
2022/08/24 01:56:56;;;;;;;45.35;38.45;;;20.20;99.90;;;;;;3060542;19;20368;-71
2022/08/24 01:58:00;;;;;;;49.22;39.13;;;20.20;99.90;;;;;;3060886;19;20014;-71
2022/08/24 01:59:02;;;;;;;48.90;37.90;;;20.30;99.90;;;;;;3060563;19;20378;-71
2022/08/24 02:00:09;;;;;;;47.85;38.45;;;20.10;99.90;;;;;;3060749;19;20022;-71
2022/08/24 02:01:11;;;;;;;44.28;37.08;;;20.20;99.90;;;;;;3060623;19;20014;-71
2022/08/24 02:02:18;;;;;;;46.47;39.58;;;20.20;99.90;;;;;;3060698;19;20002;-72
2022/08/24 02:03:21;;;;;;;51.58;38.70;;;20.10;99.90;;;;;;3060520;19;20023;-71
2022/08/24 02:04:25;;;;;;;48.88;37.78;;;20.40;99.90;;;;;;3060768;19;20019;-71
2022/08/24 02:05:26;;;;;;;44.85;37.25;;;20.20;99.90;;;;;;3060755;19;20011;-71
2022/08/24 02:06:31;;;;;;;50.53;40.05;;;20.30;99.90;;;;;;3060581;19;20024;-71
2022/08/24 02:07:32;;;;;;;51.95;37.88;;;18.80;99.90;;;;;;3060598;19;20492;-72
2022/08/24 02:08:37;;;;;;;45.33;37.42;;;20.10;99.90;;;;;;3059378;19;20047;-71
2022/08/24 02:09:41;;;;;;;47.28;38.47;;;20.00;99.90;;;;;;3060554;19;20010;-71
2022/08/24 02:10:45;;;;;;;45.17;38.25;;;20.00;99.90;;;;;;3060171;19;20011;-71
2022/08/24 02:11:47;;;;;;;49.05;39.08;;;20.20;99.90;;;;;;3060630;19;20016;-71
2022/08/24 02:12:56;;;;;;;46.45;38.70;;;19.90;99.90;;;;;;3060316;19;20036;-71
2022/08/24 02:13:58;;;;;;;51.35;38.55;;;20.00;99.90;;;;;;3060441;19;20018;-71
2022/08/24 02:15:01;;;;;;;48.33;38.20;;;20.10;99.90;;;;;;3059305;19;20472;-71
2022/08/24 02:16:04;;;;;;;54.60;40.03;;;19.90;99.90;;;;;;3060685;19;20010;-71
2022/08/24 02:17:10;;;;;;;49.55;39.72;;;20.00;99.90;;;;;;3060332;19;20094;-71
2022/08/24 02:18:11;;;;;;;46.40;37.72;;;20.00;99.90;;;;;;3060398;19;20078;-71
2022/08/24 02:19:15;;;;;;;50.05;38.30;;;20.00;99.90;;;;;;3059891;19;20006;-72
2022/08/24 02:20:17;;;;;;;44.92;36.00;;;20.10;99.90;;;;;;3060370;19;20014;-71
2022/08/24 02:21:21;;;;;;;;;;;20.00;99.90;;;;;;3060797;19;20010;-71
2022/08/24 02:22:22;;;;;;;40.70;33.63;;;20.20;99.90;;;;;;3060543;19;19921;-71
2022/08/24 02:23:26;;;;;;;43.17;35.28;;;19.90;99.90;;;;;;3060032;19;20014;-71
2022/08/24 02:24:28;;;;;;;44.03;35.22;;;20.00;99.90;;;;;;3060571;19;20039;-71
2022/08/24 02:25:34;;;;;;;;;;;20.00;99.90;;;;;;3060844;19;20081;-71
2022/08/24 02:26:36;;;;;;;43.88;34.40;;;19.90;99.90;;;;;;3060218;19;19919;-71
2022/08/24 02:27:39;;;;;;;39.55;32.65;;;19.70;99.90;;;;;;3060754;19;20014;-72
2022/08/24 02:28:41;;;;;;;39.85;32.22;;;19.70;99.90;;;;;;3059213;19;20044;-71
2022/08/24 02:29:45;;;;;;;38.45;32.20;;;19.80;99.90;;;;;;3060349;19;20030;-71
2022/08/24 02:30:48;;;;;;;38.33;32.03;;;19.80;99.90;;;;;;3060290;19;20015;-71
2022/08/24 02:31:52;;;;;;;39.53;32.10;;;19.80;99.90;;;;;;3060046;19;20011;-72
2022/08/24 02:32:53;;;;;;;36.53;31.45;;;19.80;99.90;;;;;;3060238;19;20014;-72
2022/08/24 02:33:57;;;;;;;38.50;31.05;;;19.80;99.90;;;;;;3060364;19;20021;-71
2022/08/24 02:34:58;;;;;;;38.00;31.75;;;19.70;99.90;;;;;;3060464;19;20485;-71
2022/08/24 02:36:03;;;;;;;39.03;31.90;;;19.70;99.90;;;;;;3060372;19;20659;-71
2022/08/24 02:37:05;;;;;;;41.72;32.47;;;19.70;99.90;;;;;;3060384;19;20035;-71
2022/08/24 02:38:08;;;;;;;;;;;19.70;99.90;;;;;;3060966;19;20019;-71
2022/08/24 02:39:10;;;;;;;39.22;32.90;;;19.50;99.90;;;;;;3060462;19;19986;-71
2022/08/24 02:40:15;;;;;;;40.10;33.03;;;19.60;99.90;;;;;;3059999;19;20035;-71
2022/08/24 02:41:19;;;;;;;35.70;31.40;;;20.50;99.90;;;;;;3060063;19;20014;-71
2022/08/24 02:42:22;;;;;;;37.88;33.08;;;19.60;99.90;;;;;;3059893;19;20016;-71
2022/08/24 02:43:24;;;;;;;43.20;34.90;;;19.60;99.90;;;;;;3060106;19;20014;-71
2022/08/24 02:44:28;;;;;;;42.85;35.38;;;19.50;99.90;;;;;;3060013;19;20074;-71
2022/08/24 02:45:29;;;;;;;43.28;36.88;;;19.40;99.90;;;;;;3060269;19;20021;-73
2022/08/24 02:46:33;;;;;;;49.35;39.08;;;19.50;99.90;;;;;;3060011;19;20010;-72
2022/08/24 02:47:35;;;;;;;48.13;37.65;;;19.50;99.90;;;;;;3060100;19;20027;-72
2022/08/24 02:48:39;;;;;;;45.03;34.60;;;19.40;99.90;;;;;;3059130;19;20022;-71
2022/08/24 02:49:40;;;;;;;39.53;33.20;;;19.40;99.90;;;;;;3059928;19;20007;-71
2022/08/24 02:50:47;;;;;;;39.92;32.33;;;19.50;99.90;;;;;;3059962;19;20507;-71
2022/08/24 02:51:48;;;;;;;39.13;32.47;;;19.60;99.90;;;;;;3060137;19;20168;-71
2022/08/24 02:52:53;;;;;;;37.85;32.13;;;19.50;99.90;;;;;;3059203;19;20015;-71
2022/08/24 02:53:55;;;;;;;40.42;32.47;;;19.60;99.90;;;;;;3059251;19;20018;-71
2022/08/24 02:54:59;;;;;;;39.88;32.50;;;19.40;99.90;;;;;;3059629;19;20011;-71
2022/08/24 02:56:00;;;;;;;36.47;30.58;;;19.50;99.90;;;;;;3059986;19;20011;-71
2022/08/24 02:57:07;;;;;;;35.67;30.80;;;19.50;99.90;;;;;;3059969;19;20010;-71
2022/08/24 02:58:11;;;;;;;38.55;32.80;;;19.50;99.90;;;;;;3059335;19;20048;-72
2022/08/24 02:59:15;;;;;;;41.80;33.90;;;19.50;99.90;;;;;;3059786;19;20015;-71
2022/08/24 03:00:19;;;;;;;41.15;34.30;;;19.50;99.90;;;;;;3060053;19;20159;-71
2022/08/24 03:01:22;;;;;;;39.13;33.03;;;19.50;99.90;;;;;;3059780;19;20666;-71
2022/08/24 03:02:24;;;;;;;40.83;34.58;;;19.40;99.90;;;;;;3060134;19;20010;-71
2022/08/24 03:03:28;;;;;;;41.33;34.13;;;19.60;99.90;;;;;;3059778;19;20021;-72
2022/08/24 03:04:29;;;;;;;40.83;34.25;;;19.60;99.90;;;;;;3059752;19;20010;-71
2022/08/24 03:05:44;;;;;;;39.58;33.03;;;19.50;99.90;;;;;;3060086;19;20027;-71
2022/08/24 03:06:46;;;;;;;40.88;33.10;;;19.50;99.90;;;;;;3059737;19;20006;-71
2022/08/24 03:07:50;;;;;;;41.42;33.75;;;19.60;99.90;;;;;;3059696;19;20047;-71
2022/08/24 03:08:51;;;;;;;44.58;35.30;;;19.50;99.90;;;;;;3059127;19;20010;-71
2022/08/24 03:09:55;;;;;;;42.50;34.22;;;19.60;99.90;;;;;;3059783;19;20381;-71
2022/08/24 03:10:59;;;;;;;41.50;34.83;;;19.30;99.90;;;;;;3059864;19;20007;-71
2022/08/24 03:12:03;;;;;;;43.30;34.88;;;19.50;99.90;;;;;;3059664;19;20010;-71
2022/08/24 03:13:07;;;;;;;43.30;34.83;;;19.50;99.90;;;;;;3059518;19;20010;-71
2022/08/24 03:14:10;;;;;;;46.22;36.92;;;19.30;99.90;;;;;;3059632;19;20022;-71
2022/08/24 03:15:15;;;;;;;46.78;36.15;;;19.50;99.90;;;;;;3059200;19;20029;-71
2022/08/24 03:16:17;;;;;;;44.33;35.55;;;19.30;99.90;;;;;;3059844;19;20014;-72
2022/08/24 03:17:22;;;;;;;42.13;35.75;;;19.20;99.90;;;;;;3059935;19;20023;-72
2022/08/24 03:18:27;;;;;;;43.33;34.75;;;19.50;99.90;;;;;;3059761;19;20031;-72
2022/08/24 03:19:28;;;;;;;42.50;35.40;;;19.40;99.90;;;;;;3059186;19;20014;-72
2022/08/24 03:20:32;;;;;;;43.47;36.28;;;19.50;99.90;;;;;;3059578;19;20006;-71
2022/08/24 03:21:34;;;;;;;44.92;35.80;;;19.50;99.90;;;;;;3059388;19;20444;-72
2022/08/24 03:22:38;;;;;;;43.38;34.20;;;19.50;99.90;;;;;;3059460;19;20015;-72
2022/08/24 03:23:39;;;;;;;41.03;33.03;;;19.40;99.90;;;;;;3059433;19;20018;-72
2022/08/24 03:24:43;;;;;;;43.75;32.75;;;19.50;99.90;;;;;;3059716;19;20491;-73
2022/08/24 03:25:44;;;;;;;43.97;34.58;;;19.60;99.90;;;;;;3059440;19;20007;-72
2022/08/24 03:26:49;;;;;;;43.33;35.08;;;19.40;99.90;;;;;;3060503;19;20085;-72
2022/08/24 03:27:51;;;;;;;42.58;34.33;;;19.40;99.90;;;;;;3059510;19;20011;-73
2022/08/24 03:28:57;;;;;;;42.85;34.78;;;19.30;99.90;;;;;;3058903;19;20055;-73
2022/08/24 03:29:59;;;;;;;45.10;35.78;;;19.40;99.90;;;;;;3059439;19;20031;-74
2022/08/24 03:31:03;;;;;;;45.45;34.72;;;19.30;99.90;;;;;;3059415;19;20092;-72
2022/08/24 03:32:05;;;;;;;42.90;36.13;;;19.50;99.90;;;;;;3059259;19;20017;-71
2022/08/24 03:33:09;;;;;;;46.83;36.13;;;19.30;99.90;;;;;;3059609;19;20003;-71
2022/08/24 03:34:12;;;;;;;48.13;38.15;;;19.30;99.90;;;;;;3059326;19;20484;-72
2022/08/24 03:35:18;;;;;;;46.97;36.83;;;19.40;99.90;;;;;;3059580;19;20007;-71
2022/08/24 03:36:21;;;;;;;48.85;36.92;;;19.30;99.90;;;;;;3059151;19;20031;-72
2022/08/24 03:37:23;;;;;;;46.30;36.88;;;19.50;99.90;;;;;;3059480;19;20480;-71
2022/08/24 03:38:27;;;;;;;45.28;36.42;;;19.50;99.90;;;;;;3059443;19;20014;-72
2022/08/24 03:39:28;;;;;;;45.47;36.95;;;19.40;99.90;;;;;;3058451;19;20011;-71
2022/08/24 03:40:33;;;;;;;50.92;39.83;;;19.40;99.90;;;;;;3058392;19;20006;-72
2022/08/24 03:41:34;;;;;;;49.90;40.03;;;19.30;99.90;;;;;;3058624;19;20031;-71
2022/08/24 03:42:38;;;;;;;51.50;39.60;;;19.40;99.90;;;;;;3058548;19;20059;-71
2022/08/24 03:43:47;;;;;;;53.55;40.38;;;19.40;99.90;;;;;;3059225;19;20011;-71
2022/08/24 03:44:54;;;;;;;50.20;39.95;;;19.40;99.90;;;;;;3059196;19;20423;-72
2022/08/24 03:45:55;;;;;;;49.63;38.78;;;19.30;99.90;;;;;;3059191;19;20010;-71
2022/08/24 03:46:59;;;;;;;50.72;39.42;;;19.50;99.90;;;;;;3059088;19;20043;-71
2022/08/24 03:48:01;;;;;;;51.22;39.30;;;19.20;99.90;;;;;;3059236;19;20006;-72
2022/08/24 03:49:07;;;;;;;53.08;40.88;;;19.20;99.90;;;;;;3058595;19;20010;-72
2022/08/24 03:50:10;;;;;;;51.45;40.92;;;19.40;99.90;;;;;;3059167;19;20476;-71
2022/08/24 03:51:16;;;;;;;54.65;42.72;;;19.20;99.90;;;;;;3059104;19;20029;-71
2022/08/24 03:52:18;;;;;;;52.15;41.70;;;19.20;99.90;;;;;;3059085;19;20099;-71
2022/08/24 03:53:22;;;;;;;53.03;40.50;;;19.20;99.90;;;;;;3059230;19;20040;-72
2022/08/24 03:54:24;;;;;;;49.90;39.30;;;19.10;99.90;;;;;;3059137;19;20010;-71
2022/08/24 03:55:28;;;;;;;50.35;38.40;;;19.20;99.90;;;;;;3059063;19;20018;-72
2022/08/24 03:56:29;;;;;;;50.17;38.65;;;19.20;99.90;;;;;;3059272;19;20010;-72
2022/08/24 03:57:33;;;;;;;;;;;19.20;99.90;;;;;;3059565;19;20021;-72
2022/08/24 03:58:35;;;;;;;48.40;38.00;;;19.20;99.90;;;;;;3059048;19;19922;-71
2022/08/24 03:59:39;;;;;;;;;;;18.40;99.90;;;;;;3059534;19;20007;-72
2022/08/24 04:00:43;;;;;;;46.13;36.33;;;19.10;99.90;;;;;;3059094;19;20332;-72
2022/08/24 04:01:47;;;;;;;41.25;34.13;;;19.40;99.90;;;;;;3058709;19;20014;-72
2022/08/24 04:02:48;;;;;;;44.00;35.40;;;19.10;99.90;;;;;;3059152;19;20027;-72
2022/08/24 04:03:53;;;;;;;47.47;37.80;;;19.10;99.90;;;;;;3058812;19;20010;-71
2022/08/24 04:04:54;;;;;;;49.28;38.08;;;19.20;99.90;;;;;;3058872;19;20365;-71
2022/08/24 04:05:58;;;;;;;48.97;37.63;;;19.00;99.90;;;;;;3058850;19;20379;-72
2022/08/24 04:06:59;;;;;;;51.13;39.15;;;19.20;99.90;;;;;;3059160;19;20024;-71
2022/08/24 04:08:04;;;;;;;48.03;38.92;;;19.10;99.90;;;;;;3058785;19;20014;-72
2022/08/24 04:09:06;;;;;;;51.97;39.00;;;19.10;99.90;;;;;;3058368;19;20484;-72
2022/08/24 04:10:13;;;;;;;48.55;38.22;;;19.10;99.90;;;;;;3057116;19;20014;-71
2022/08/24 04:11:21;;;;;;;46.22;38.17;;;19.20;99.90;;;;;;3059111;19;20010;-72
2022/08/24 04:12:25;;;;;;;49.53;37.95;;;19.20;99.90;;;;;;3058782;19;20023;-71
2022/08/24 04:13:30;;;;;;;49.03;37.03;;;19.20;99.90;;;;;;3058842;19;20015;-71
2022/08/24 04:14:34;;;;;;;46.83;36.63;;;19.30;99.90;;;;;;3059310;19;20011;-71
2022/08/24 04:15:39;;;;;;;46.35;37.15;;;19.10;99.90;;;;;;3058889;19;20021;-71
2022/08/24 04:16:46;;;;;;;45.70;35.45;;;19.20;99.90;;;;;;3059485;19;20010;-72
2022/08/24 04:17:47;;;;;;;44.28;35.10;;;19.10;99.90;;;;;;3059405;19;20431;-71
2022/08/24 04:18:52;;;;;;;42.47;35.20;;;19.10;99.90;;;;;;3059544;19;20010;-71
2022/08/24 04:19:56;;;;;;;43.22;35.22;;;19.20;99.90;;;;;;3060178;19;20377;-73
2022/08/24 04:21:00;;;;;;;41.53;34.05;;;19.20;99.90;;;;;;3060188;19;20072;-73
2022/08/24 04:22:01;;;;;;;39.08;33.20;;;19.00;99.90;;;;;;3060272;19;20741;-72
2022/08/24 04:23:06;;;;;;;39.75;31.92;;;19.10;99.90;;;;;;3059574;19;20074;-72
2022/08/24 04:24:08;;;;;;;38.35;32.70;;;19.00;99.90;;;;;;3059284;19;20510;-72
2022/08/24 04:25:13;;;;;;;38.53;31.95;;;19.10;99.90;;;;;;3060441;19;20069;-71
2022/08/24 04:26:16;;;;;;;37.85;31.33;;;19.00;99.90;;;;;;3059555;19;20043;-72
2022/08/24 04:27:24;;;;;;;36.60;30.50;;;19.10;99.90;;;;;;3058526;19;20002;-72
2022/08/24 04:28:27;;;;;;;38.03;31.40;;;19.20;99.90;;;;;;3058537;19;20484;-72
2022/08/24 04:29:31;;;;;;;38.30;30.90;;;19.00;99.90;;;;;;3057864;19;20011;-71
2022/08/24 04:30:32;;;;;;;36.60;30.45;;;19.10;99.90;;;;;;3058686;19;20006;-72
2022/08/24 04:31:37;;;;;;;37.53;31.08;;;19.10;99.90;;;;;;3058781;19;20085;-72
2022/08/24 04:32:41;;;;;;;37.88;31.65;;;19.00;99.90;;;;;;3058391;19;20021;-72
2022/08/24 04:33:45;;;;;;;37.13;30.92;;;18.90;99.90;;;;;;3058799;19;20505;-72
2022/08/24 04:34:47;;;;;;;38.55;30.80;;;19.10;99.90;;;;;;3058385;19;20018;-71
2022/08/24 04:35:51;;;;;;;35.65;29.90;;;19.10;99.90;;;;;;3058752;19;20035;-72
2022/08/24 04:36:52;;;;;;;35.63;30.23;;;18.90;99.90;;;;;;3058275;19;20014;-71
2022/08/24 04:37:56;;;;;;;36.35;31.13;;;18.00;99.90;;;;;;3058575;19;20025;-72
2022/08/24 04:38:59;;;;;;;35.55;30.10;;;19.10;99.90;;;;;;3058281;19;20014;-72
2022/08/24 04:40:03;;;;;;;35.22;29.63;;;19.10;99.90;;;;;;3058174;19;20021;-71
2022/08/24 04:41:07;;;;;;;38.03;30.73;;;19.00;99.90;;;;;;3058316;19;20018;-71
2022/08/24 04:42:11;;;;;;;41.50;30.92;;;18.90;99.90;;;;;;3058432;19;20014;-72
2022/08/24 04:43:13;;;;;;;38.45;31.00;;;18.90;99.90;;;;;;3058294;19;20021;-72
2022/08/24 04:44:17;;;;;;;38.58;31.58;;;18.80;99.90;;;;;;3058352;19;20039;-72
2022/08/24 04:45:19;;;;;;;36.90;30.98;;;19.10;99.90;;;;;;3058302;19;20017;-72
2022/08/24 04:46:22;;;;;;;41.25;31.60;;;18.80;99.90;;;;;;3058354;19;20027;-71
2022/08/24 04:47:24;;;;;;;37.50;31.00;;;19.00;99.90;;;;;;3058244;19;20014;-72
2022/08/24 04:48:30;;;;;;;38.80;30.67;;;18.80;99.90;;;;;;3058269;19;20006;-71
2022/08/24 04:49:32;;;;;;;34.33;30.23;;;18.80;99.90;;;;;;3057006;19;20571;-71
2022/08/24 04:50:36;;;;;;;35.22;29.30;;;18.80;99.90;;;;;;3058679;19;20018;-71
2022/08/24 04:51:38;;;;;;;32.72;29.00;;;18.80;99.90;;;;;;3058159;19;20018;-71
2022/08/24 04:52:41;;;;;;;35.50;30.27;;;18.80;99.90;;;;;;3058138;19;20009;-72
2022/08/24 04:53:44;;;;;;;34.08;28.88;;;18.60;99.90;;;;;;3058080;19;20019;-72
2022/08/24 04:54:48;;;;;;;;;;;18.60;99.90;;;;;;3058916;19;20382;-72
2022/08/24 04:55:49;;;;;;;36.33;28.45;;;18.80;99.90;;;;;;3058104;19;19930;-71
2022/08/24 04:56:53;;;;;;;34.50;28.95;;;18.70;99.90;;;;;;3058423;19;20003;-71
2022/08/24 04:57:55;;;;;;;35.55;29.23;;;18.70;99.90;;;;;;3057141;19;20010;-72
2022/08/24 04:58:59;;;;;;;36.08;29.20;;;18.70;99.90;;;;;;3057243;19;20014;-72
2022/08/24 05:00:02;;;;;;;33.78;29.50;;;18.70;99.90;;;;;;3057930;19;20011;-71
2022/08/24 05:01:09;;;;;;;33.00;28.20;;;18.70;99.90;;;;;;3058118;19;20476;-72
2022/08/24 05:02:10;;;;;;;32.10;28.60;;;18.80;99.90;;;;;;3057977;19;20587;-72
2022/08/24 05:03:15;;;;;;;32.88;28.10;;;18.80;99.90;;;;;;3058260;19;20022;-72
2022/08/24 05:04:20;;;;;;;32.75;29.20;;;18.70;99.90;;;;;;3058221;19;20031;-73
2022/08/24 05:05:23;;;;;;;32.63;29.02;;;18.70;99.90;;;;;;3058177;19;20014;-72
2022/08/24 05:06:27;;;;;;;33.10;28.55;;;18.60;99.90;;;;;;3058026;19;20011;-71
2022/08/24 05:07:31;;;;;;;31.23;27.83;;;18.60;99.90;;;;;;3058095;19;20033;-72
2022/08/24 05:08:33;;;;;;;32.92;29.38;;;18.70;99.90;;;;;;3057853;19;20062;-71
2022/08/24 05:09:37;;;;;;;32.72;29.10;;;18.70;99.90;;;;;;3057450;19;19998;-71
2022/08/24 05:10:39;;;;;;;33.03;29.48;;;18.50;99.90;;;;;;3057844;19;20007;-71
2022/08/24 05:11:43;;;;;;;33.17;29.05;;;18.50;99.90;;;;;;3058344;19;20025;-71
2022/08/24 05:12:45;;;;;;;33.72;29.17;;;18.50;99.90;;;;;;3058203;19;20011;-72
2022/08/24 05:13:49;;;;;;;36.38;30.70;;;18.60;99.90;;;;;;3058287;19;20028;-72
2022/08/24 05:14:51;;;;;;;33.85;29.60;;;18.60;99.90;;;;;;3057670;19;20021;-71
2022/08/24 05:15:55;;;;;;;34.58;30.88;;;18.50;99.90;;;;;;3057433;19;20044;-72
2022/08/24 05:16:56;;;;;;;37.85;32.08;;;18.60;99.90;;;;;;3057931;19;20014;-72
2022/08/24 05:18:00;;;;;;;38.40;33.00;;;18.50;99.90;;;;;;3058081;19;20088;-71
2022/08/24 05:19:02;;;;;;;40.25;33.83;;;18.60;99.90;;;;;;3057929;19;20010;-71
2022/08/24 05:20:10;;;;;;;;;;;18.70;99.90;;;;;;3058858;19;20014;-72
2022/08/24 05:21:15;;;;;;;44.05;33.38;;;18.60;99.90;;;;;;3058789;19;20337;-71
2022/08/24 05:22:20;;;;;;;39.45;33.15;;;18.60;99.90;;;;;;3061080;19;20021;-72
2022/08/24 05:23:22;;;;;;;39.85;33.15;;;18.60;99.90;;;;;;3061017;19;20073;-71
2022/08/24 05:24:26;;;;;;;41.35;33.35;;;18.70;99.90;;;;;;3061119;19;20002;-72
2022/08/24 05:25:27;;;;;;;38.13;32.33;;;18.70;99.90;;;;;;3061282;19;20332;-72
2022/08/24 05:26:32;;;;;;;38.38;32.45;;;18.60;99.90;;;;;;3060829;19;20015;-72
2022/08/24 05:27:34;;;;;;;39.28;31.75;;;18.70;99.90;;;;;;3060040;19;20492;-72
2022/08/24 05:28:38;;;;;;;;;;;18.70;99.90;;;;;;3061703;19;20595;-73